sensor_id;sensor_type;location;lat;lon;timestamp;P1;durP1;ratioP1;P2;durP2;ratioP2
5931;SDS011;2991;49.368;8.528;2022-08-21T00:01:02;4.13;;;3.00;;
5931;SDS011;2991;49.368;8.528;2022-08-21T00:03:32;2.97;;;2.70;;
5931;SDS011;2991;49.368;8.528;2022-08-21T00:05:58;3.33;;;2.77;;
5931;SDS011;2991;49.368;8.528;2022-08-21T00:08:23;3.33;;;3.03;;
5931;SDS011;2991;49.368;8.528;2022-08-21T00:10:49;3.40;;;3.10;;
5931;SDS011;2991;49.368;8.528;2022-08-21T00:13:16;3.10;;;2.63;;
5931;SDS011;2991;49.368;8.528;2022-08-21T00:15:42;3.50;;;3.20;;
5931;SDS011;2991;49.368;8.528;2022-08-21T00:18:09;4.05;;;2.78;;
5931;SDS011;2991;49.368;8.528;2022-08-21T00:20:36;3.50;;;2.75;;
5931;SDS011;2991;49.368;8.528;2022-08-21T00:23:02;2.90;;;2.70;;
5931;SDS011;2991;49.368;8.528;2022-08-21T00:25:28;4.03;;;2.78;;
5931;SDS011;2991;49.368;8.528;2022-08-21T00:27:55;4.10;;;3.20;;
5931;SDS011;2991;49.368;8.528;2022-08-21T00:30:22;9.80;;;2.85;;
5931;SDS011;2991;49.368;8.528;2022-08-21T00:32:50;2.92;;;2.70;;
5931;SDS011;2991;49.368;8.528;2022-08-21T00:35:18;3.20;;;2.90;;
5931;SDS011;2991;49.368;8.528;2022-08-21T00:37:45;3.30;;;3.00;;
5931;SDS011;2991;49.368;8.528;2022-08-21T00:40:13;3.07;;;2.77;;
5931;SDS011;2991;49.368;8.528;2022-08-21T00:42:42;2.85;;;2.63;;
5931;SDS011;2991;49.368;8.528;2022-08-21T00:45:08;2.85;;;2.50;;
5931;SDS011;2991;49.368;8.528;2022-08-21T00:47:35;3.88;;;2.95;;
5931;SDS011;2991;49.368;8.528;2022-08-21T00:50:00;4.80;;;2.95;;
5931;SDS011;2991;49.368;8.528;2022-08-21T00:52:28;3.55;;;2.80;;
5931;SDS011;2991;49.368;8.528;2022-08-21T00:54:56;3.45;;;2.58;;
5931;SDS011;2991;49.368;8.528;2022-08-21T00:57:24;2.72;;;2.53;;
5931;SDS011;2991;49.368;8.528;2022-08-21T00:59:54;2.93;;;2.70;;
5931;SDS011;2991;49.368;8.528;2022-08-21T01:02:21;2.67;;;2.47;;
5931;SDS011;2991;49.368;8.528;2022-08-21T01:04:47;4.30;;;2.95;;
5931;SDS011;2991;49.368;8.528;2022-08-21T01:07:13;4.50;;;2.67;;
5931;SDS011;2991;49.368;8.528;2022-08-21T01:09:39;2.80;;;2.60;;
5931;SDS011;2991;49.368;8.528;2022-08-21T01:12:06;3.08;;;2.70;;
5931;SDS011;2991;49.368;8.528;2022-08-21T01:14:33;5.10;;;3.13;;
5931;SDS011;2991;49.368;8.528;2022-08-21T01:16:59;6.60;;;3.23;;
5931;SDS011;2991;49.368;8.528;2022-08-21T01:19:28;3.30;;;3.00;;
5931;SDS011;2991;49.368;8.528;2022-08-21T01:21:54;5.80;;;3.23;;
5931;SDS011;2991;49.368;8.528;2022-08-21T01:24:20;4.60;;;3.43;;
5931;SDS011;2991;49.368;8.528;2022-08-21T01:26:46;3.87;;;2.70;;
5931;SDS011;2991;49.368;8.528;2022-08-21T01:31:55;4.10;;;2.95;;
5931;SDS011;2991;49.368;8.528;2022-08-21T01:34:21;4.18;;;3.28;;
5931;SDS011;2991;49.368;8.528;2022-08-21T01:36:47;2.93;;;2.63;;
5931;SDS011;2991;49.368;8.528;2022-08-21T01:39:13;3.20;;;2.90;;
5931;SDS011;2991;49.368;8.528;2022-08-21T01:41:39;3.17;;;2.87;;
5931;SDS011;2991;49.368;8.528;2022-08-21T01:44:05;4.53;;;3.15;;
5931;SDS011;2991;49.368;8.528;2022-08-21T01:46:31;3.97;;;3.33;;
5931;SDS011;2991;49.368;8.528;2022-08-21T01:48:57;3.63;;;2.95;;
5931;SDS011;2991;49.368;8.528;2022-08-21T01:51:23;7.07;;;3.33;;
5931;SDS011;2991;49.368;8.528;2022-08-21T01:53:49;3.40;;;2.60;;
5931;SDS011;2991;49.368;8.528;2022-08-21T01:56:16;3.65;;;2.78;;
5931;SDS011;2991;49.368;8.528;2022-08-21T01:58:44;3.42;;;3.13;;
5931;SDS011;2991;49.368;8.528;2022-08-21T02:01:11;3.93;;;3.10;;
5931;SDS011;2991;49.368;8.528;2022-08-21T02:03:37;4.10;;;3.30;;
5931;SDS011;2991;49.368;8.528;2022-08-21T02:06:03;4.30;;;2.97;;
5931;SDS011;2991;49.368;8.528;2022-08-21T02:08:30;2.80;;;2.60;;
5931;SDS011;2991;49.368;8.528;2022-08-21T02:10:55;3.33;;;3.03;;
5931;SDS011;2991;49.368;8.528;2022-08-21T02:13:21;3.80;;;2.67;;
5931;SDS011;2991;49.368;8.528;2022-08-21T02:15:46;4.23;;;3.20;;
5931;SDS011;2991;49.368;8.528;2022-08-21T02:18:12;3.70;;;3.20;;
5931;SDS011;2991;49.368;8.528;2022-08-21T02:20:39;3.50;;;3.13;;
5931;SDS011;2991;49.368;8.528;2022-08-21T02:23:07;3.38;;;3.08;;
5931;SDS011;2991;49.368;8.528;2022-08-21T02:25:35;3.57;;;3.27;;
5931;SDS011;2991;49.368;8.528;2022-08-21T02:28:03;3.55;;;3.25;;
5931;SDS011;2991;49.368;8.528;2022-08-21T02:30:32;4.43;;;3.40;;
5931;SDS011;2991;49.368;8.528;2022-08-21T02:33:02;4.55;;;3.08;;
5931;SDS011;2991;49.368;8.528;2022-08-21T02:35:28;4.20;;;3.00;;
5931;SDS011;2991;49.368;8.528;2022-08-21T02:37:58;4.37;;;3.10;;
5931;SDS011;2991;49.368;8.528;2022-08-21T02:40:27;3.40;;;3.10;;
5931;SDS011;2991;49.368;8.528;2022-08-21T02:42:55;2.90;;;2.70;;
5931;SDS011;2991;49.368;8.528;2022-08-21T02:45:21;3.30;;;3.00;;
5931;SDS011;2991;49.368;8.528;2022-08-21T02:47:51;3.22;;;2.92;;
5931;SDS011;2991;49.368;8.528;2022-08-21T02:50:23;3.58;;;3.28;;
5931;SDS011;2991;49.368;8.528;2022-08-21T02:52:51;4.50;;;3.40;;
5931;SDS011;2991;49.368;8.528;2022-08-21T02:55:17;3.77;;;3.43;;
5931;SDS011;2991;49.368;8.528;2022-08-21T02:57:45;3.73;;;3.10;;
5931;SDS011;2991;49.368;8.528;2022-08-21T03:00:11;3.10;;;2.90;;
5931;SDS011;2991;49.368;8.528;2022-08-21T03:02:38;3.17;;;2.87;;
5931;SDS011;2991;49.368;8.528;2022-08-21T03:05:05;4.83;;;3.23;;
5931;SDS011;2991;49.368;8.528;2022-08-21T03:07:31;3.53;;;3.00;;
5931;SDS011;2991;49.368;8.528;2022-08-21T03:09:57;4.00;;;3.23;;
5931;SDS011;2991;49.368;8.528;2022-08-21T03:12:23;3.10;;;2.83;;
5931;SDS011;2991;49.368;8.528;2022-08-21T03:14:49;3.60;;;3.27;;
5931;SDS011;2991;49.368;8.528;2022-08-21T03:17:15;4.33;;;3.03;;
5931;SDS011;2991;49.368;8.528;2022-08-21T03:19:40;3.30;;;3.10;;
5931;SDS011;2991;49.368;8.528;2022-08-21T03:22:06;2.90;;;2.70;;
5931;SDS011;2991;49.368;8.528;2022-08-21T03:24:31;3.30;;;3.00;;
5931;SDS011;2991;49.368;8.528;2022-08-21T03:26:57;4.23;;;3.27;;
5931;SDS011;2991;49.368;8.528;2022-08-21T03:29:22;3.20;;;2.90;;
5931;SDS011;2991;49.368;8.528;2022-08-21T03:31:48;3.40;;;3.07;;
5931;SDS011;2991;49.368;8.528;2022-08-21T03:34:14;3.13;;;2.93;;
5931;SDS011;2991;49.368;8.528;2022-08-21T03:36:39;5.87;;;3.90;;
5931;SDS011;2991;49.368;8.528;2022-08-21T03:39:05;2.80;;;2.60;;
5931;SDS011;2991;49.368;8.528;2022-08-21T03:41:31;3.47;;;3.17;;
5931;SDS011;2991;49.368;8.528;2022-08-21T03:43:57;3.27;;;2.97;;
5931;SDS011;2991;49.368;8.528;2022-08-21T03:46:23;3.10;;;2.83;;
5931;SDS011;2991;49.368;8.528;2022-08-21T03:48:49;4.73;;;2.87;;
5931;SDS011;2991;49.368;8.528;2022-08-21T03:51:14;3.60;;;3.30;;
5931;SDS011;2991;49.368;8.528;2022-08-21T03:53:40;3.47;;;3.00;;
5931;SDS011;2991;49.368;8.528;2022-08-21T03:56:06;3.30;;;3.00;;
5931;SDS011;2991;49.368;8.528;2022-08-21T03:58:31;3.27;;;3.07;;
5931;SDS011;2991;49.368;8.528;2022-08-21T04:00:58;3.37;;;3.00;;
5931;SDS011;2991;49.368;8.528;2022-08-21T04:03:25;3.43;;;2.70;;
5931;SDS011;2991;49.368;8.528;2022-08-21T04:05:52;2.73;;;2.53;;
5931;SDS011;2991;49.368;8.528;2022-08-21T04:08:18;3.67;;;3.37;;
5931;SDS011;2991;49.368;8.528;2022-08-21T04:10:45;18.33;;;3.40;;
5931;SDS011;2991;49.368;8.528;2022-08-21T04:13:16;4.10;;;3.43;;
5931;SDS011;2991;49.368;8.528;2022-08-21T04:15:55;4.27;;;3.87;;
5931;SDS011;2991;49.368;8.528;2022-08-21T04:18:23;3.90;;;3.50;;
5931;SDS011;2991;49.368;8.528;2022-08-21T04:20:49;3.97;;;3.67;;
5931;SDS011;2991;49.368;8.528;2022-08-21T04:23:19;3.40;;;3.10;;
5931;SDS011;2991;49.368;8.528;2022-08-21T04:25:46;3.10;;;2.90;;
5931;SDS011;2991;49.368;8.528;2022-08-21T04:28:11;4.33;;;3.47;;
5931;SDS011;2991;49.368;8.528;2022-08-21T04:30:37;3.43;;;3.13;;
5931;SDS011;2991;49.368;8.528;2022-08-21T04:33:02;4.70;;;3.37;;
5931;SDS011;2991;49.368;8.528;2022-08-21T04:35:28;3.40;;;3.20;;
5931;SDS011;2991;49.368;8.528;2022-08-21T04:37:55;3.60;;;3.30;;
5931;SDS011;2991;49.368;8.528;2022-08-21T04:40:22;3.50;;;3.20;;
5931;SDS011;2991;49.368;8.528;2022-08-21T04:42:52;4.17;;;3.33;;
5931;SDS011;2991;49.368;8.528;2022-08-21T04:45:36;4.53;;;3.23;;
5931;SDS011;2991;49.368;8.528;2022-08-21T04:48:05;4.50;;;3.50;;
5931;SDS011;2991;49.368;8.528;2022-08-21T04:50:52;3.20;;;3.00;;
5931;SDS011;2991;49.368;8.528;2022-08-21T04:53:36;3.93;;;3.53;;
5931;SDS011;2991;49.368;8.528;2022-08-21T04:56:08;3.03;;;2.83;;
5931;SDS011;2991;49.368;8.528;2022-08-21T04:58:38;3.90;;;3.50;;
5931;SDS011;2991;49.368;8.528;2022-08-21T05:01:04;3.80;;;3.47;;
5931;SDS011;2991;49.368;8.528;2022-08-21T05:03:33;3.50;;;3.20;;
5931;SDS011;2991;49.368;8.528;2022-08-21T05:06:01;3.97;;;3.37;;
5931;SDS011;2991;49.368;8.528;2022-08-21T05:08:33;3.27;;;2.97;;
5931;SDS011;2991;49.368;8.528;2022-08-21T05:10:59;5.43;;;2.97;;
5931;SDS011;2991;49.368;8.528;2022-08-21T05:13:25;3.13;;;2.93;;
5931;SDS011;2991;49.368;8.528;2022-08-21T05:15:50;3.40;;;3.10;;
5931;SDS011;2991;49.368;8.528;2022-08-21T05:18:16;3.63;;;3.33;;
5931;SDS011;2991;49.368;8.528;2022-08-21T05:20:41;3.60;;;3.27;;
5931;SDS011;2991;49.368;8.528;2022-08-21T05:23:09;3.57;;;2.80;;
5931;SDS011;2991;49.368;8.528;2022-08-21T05:25:36;5.03;;;3.50;;
5931;SDS011;2991;49.368;8.528;2022-08-21T05:28:02;3.70;;;3.40;;
5931;SDS011;2991;49.368;8.528;2022-08-21T05:30:29;3.03;;;2.83;;
5931;SDS011;2991;49.368;8.528;2022-08-21T05:32:55;3.83;;;3.40;;
5931;SDS011;2991;49.368;8.528;2022-08-21T05:35:22;3.30;;;3.00;;
5931;SDS011;2991;49.368;8.528;2022-08-21T05:37:48;3.20;;;3.00;;
5931;SDS011;2991;49.368;8.528;2022-08-21T05:40:13;3.50;;;3.20;;
5931;SDS011;2991;49.368;8.528;2022-08-21T05:42:39;4.80;;;4.07;;
5931;SDS011;2991;49.368;8.528;2022-08-21T05:45:04;4.03;;;3.50;;
5931;SDS011;2991;49.368;8.528;2022-08-21T05:47:30;3.30;;;3.10;;
5931;SDS011;2991;49.368;8.528;2022-08-21T05:49:56;4.00;;;2.87;;
5931;SDS011;2991;49.368;8.528;2022-08-21T05:52:21;3.10;;;2.90;;
5931;SDS011;2991;49.368;8.528;2022-08-21T05:54:47;3.60;;;3.30;;
5931;SDS011;2991;49.368;8.528;2022-08-21T05:57:13;3.10;;;2.90;;
5931;SDS011;2991;49.368;8.528;2022-08-21T05:59:39;3.80;;;3.40;;
5931;SDS011;2991;49.368;8.528;2022-08-21T06:02:05;3.50;;;3.23;;
5931;SDS011;2991;49.368;8.528;2022-08-21T06:04:35;3.40;;;3.10;;
5931;SDS011;2991;49.368;8.528;2022-08-21T06:07:01;3.20;;;2.97;;
5931;SDS011;2991;49.368;8.528;2022-08-21T06:09:27;3.10;;;2.90;;
5931;SDS011;2991;49.368;8.528;2022-08-21T06:11:52;4.60;;;3.20;;
5931;SDS011;2991;49.368;8.528;2022-08-21T06:14:18;4.10;;;3.30;;
5931;SDS011;2991;49.368;8.528;2022-08-21T06:16:43;3.63;;;3.33;;
5931;SDS011;2991;49.368;8.528;2022-08-21T06:19:09;3.43;;;3.13;;
5931;SDS011;2991;49.368;8.528;2022-08-21T06:21:34;3.53;;;3.20;;
5931;SDS011;2991;49.368;8.528;2022-08-21T06:24:00;3.73;;;3.27;;
5931;SDS011;2991;49.368;8.528;2022-08-21T06:26:25;4.37;;;2.83;;
5931;SDS011;2991;49.368;8.528;2022-08-21T06:28:51;4.83;;;3.13;;
5931;SDS011;2991;49.368;8.528;2022-08-21T06:31:18;3.77;;;3.47;;
5931;SDS011;2991;49.368;8.528;2022-08-21T06:33:48;3.40;;;2.93;;
5931;SDS011;2991;49.368;8.528;2022-08-21T06:36:14;3.00;;;2.70;;
5931;SDS011;2991;49.368;8.528;2022-08-21T06:38:40;2.53;;;2.30;;
5931;SDS011;2991;49.368;8.528;2022-08-21T06:41:06;3.33;;;2.70;;
5931;SDS011;2991;49.368;8.528;2022-08-21T06:43:32;3.50;;;3.20;;
5931;SDS011;2991;49.368;8.528;2022-08-21T06:45:58;4.40;;;3.20;;
5931;SDS011;2991;49.368;8.528;2022-08-21T06:48:24;3.37;;;2.80;;
5931;SDS011;2991;49.368;8.528;2022-08-21T06:50:49;3.73;;;3.33;;
5931;SDS011;2991;49.368;8.528;2022-08-21T06:53:16;3.30;;;3.00;;
5931;SDS011;2991;49.368;8.528;2022-08-21T06:55:43;3.93;;;3.03;;
5931;SDS011;2991;49.368;8.528;2022-08-21T06:58:11;3.33;;;3.13;;
5931;SDS011;2991;49.368;8.528;2022-08-21T07:00:41;3.63;;;2.83;;
5931;SDS011;2991;49.368;8.528;2022-08-21T07:03:15;3.90;;;3.23;;
5931;SDS011;2991;49.368;8.528;2022-08-21T07:05:42;5.03;;;3.20;;
5931;SDS011;2991;49.368;8.528;2022-08-21T07:08:08;5.07;;;3.30;;
5931;SDS011;2991;49.368;8.528;2022-08-21T07:10:33;6.40;;;3.60;;
5931;SDS011;2991;49.368;8.528;2022-08-21T07:12:59;3.60;;;2.93;;
5931;SDS011;2991;49.368;8.528;2022-08-21T07:15:25;6.90;;;3.33;;
5931;SDS011;2991;49.368;8.528;2022-08-21T07:17:50;5.93;;;2.70;;
5931;SDS011;2991;49.368;8.528;2022-08-21T07:20:16;5.27;;;3.53;;
5931;SDS011;2991;49.368;8.528;2022-08-21T07:22:42;5.90;;;3.30;;
5931;SDS011;2991;49.368;8.528;2022-08-21T07:25:08;8.20;;;3.23;;
5931;SDS011;2991;49.368;8.528;2022-08-21T07:27:34;3.20;;;2.87;;
5931;SDS011;2991;49.368;8.528;2022-08-21T07:30:00;4.93;;;3.07;;
5931;SDS011;2991;49.368;8.528;2022-08-21T07:32:25;9.67;;;2.90;;
5931;SDS011;2991;49.368;8.528;2022-08-21T07:34:51;4.23;;;2.97;;
5931;SDS011;2991;49.368;8.528;2022-08-21T07:37:17;6.03;;;2.97;;
5931;SDS011;2991;49.368;8.528;2022-08-21T07:39:42;4.20;;;3.47;;
5931;SDS011;2991;49.368;8.528;2022-08-21T07:42:09;3.60;;;3.17;;
5931;SDS011;2991;49.368;8.528;2022-08-21T07:44:34;4.30;;;3.00;;
5931;SDS011;2991;49.368;8.528;2022-08-21T07:47:00;5.00;;;3.00;;
5931;SDS011;2991;49.368;8.528;2022-08-21T07:49:26;2.80;;;2.60;;
5931;SDS011;2991;49.368;8.528;2022-08-21T07:51:52;6.05;;;3.38;;
5931;SDS011;2991;49.368;8.528;2022-08-21T07:54:18;4.10;;;2.90;;
5931;SDS011;2991;49.368;8.528;2022-08-21T07:56:44;6.53;;;3.03;;
5931;SDS011;2991;49.368;8.528;2022-08-21T07:59:10;4.80;;;3.17;;
5931;SDS011;2991;49.368;8.528;2022-08-21T08:01:36;3.83;;;3.43;;
5931;SDS011;2991;49.368;8.528;2022-08-21T08:04:01;5.90;;;3.20;;
5931;SDS011;2991;49.368;8.528;2022-08-21T08:06:27;3.93;;;3.20;;
5931;SDS011;2991;49.368;8.528;2022-08-21T08:08:53;2.83;;;2.60;;
5931;SDS011;2991;49.368;8.528;2022-08-21T08:11:18;2.90;;;2.70;;
5931;SDS011;2991;49.368;8.528;2022-08-21T08:13:45;6.70;;;2.97;;
5931;SDS011;2991;49.368;8.528;2022-08-21T08:16:13;3.90;;;2.77;;
5931;SDS011;2991;49.368;8.528;2022-08-21T08:18:39;2.83;;;2.58;;
5931;SDS011;2991;49.368;8.528;2022-08-21T08:21:06;4.10;;;3.20;;
5931;SDS011;2991;49.368;8.528;2022-08-21T08:23:32;5.30;;;2.70;;
5931;SDS011;2991;49.368;8.528;2022-08-21T08:25:58;2.70;;;2.50;;
5931;SDS011;2991;49.368;8.528;2022-08-21T08:28:24;5.13;;;3.47;;
5931;SDS011;2991;49.368;8.528;2022-08-21T08:30:49;3.93;;;2.67;;
5931;SDS011;2991;49.368;8.528;2022-08-21T08:33:15;3.70;;;2.33;;
5931;SDS011;2991;49.368;8.528;2022-08-21T08:35:46;3.35;;;2.50;;
5931;SDS011;2991;49.368;8.528;2022-08-21T08:38:14;3.17;;;2.67;;
5931;SDS011;2991;49.368;8.528;2022-08-21T08:40:46;3.28;;;2.67;;
5931;SDS011;2991;49.368;8.528;2022-08-21T08:43:17;2.73;;;2.50;;
5931;SDS011;2991;49.368;8.528;2022-08-21T08:45:45;2.80;;;2.53;;
5931;SDS011;2991;49.368;8.528;2022-08-21T08:48:14;3.37;;;2.90;;
5931;SDS011;2991;49.368;8.528;2022-08-21T08:50:57;2.90;;;2.20;;
5931;SDS011;2991;49.368;8.528;2022-08-21T08:53:28;2.83;;;2.55;;
5931;SDS011;2991;49.368;8.528;2022-08-21T08:55:57;2.73;;;2.50;;
5931;SDS011;2991;49.368;8.528;2022-08-21T08:58:26;3.03;;;2.70;;
5931;SDS011;2991;49.368;8.528;2022-08-21T09:00:58;2.80;;;2.40;;
5931;SDS011;2991;49.368;8.528;2022-08-21T09:03:24;2.70;;;2.50;;
5931;SDS011;2991;49.368;8.528;2022-08-21T09:08:36;2.53;;;2.33;;
5931;SDS011;2991;49.368;8.528;2022-08-21T09:11:04;2.40;;;2.30;;
5931;SDS011;2991;49.368;8.528;2022-08-21T09:16:25;3.53;;;3.10;;
5931;SDS011;2991;49.368;8.528;2022-08-21T09:25:03;2.30;;;2.20;;
5931;SDS011;2991;49.368;8.528;2022-08-21T09:27:36;3.20;;;2.65;;
5931;SDS011;2991;49.368;8.528;2022-08-21T09:30:03;4.63;;;2.58;;
5931;SDS011;2991;49.368;8.528;2022-08-21T09:32:31;3.47;;;2.78;;
5931;SDS011;2991;49.368;8.528;2022-08-21T09:37:35;3.03;;;2.43;;
5931;SDS011;2991;49.368;8.528;2022-08-21T09:40:28;2.65;;;2.40;;
5931;SDS011;2991;49.368;8.528;2022-08-21T09:42:57;2.80;;;2.50;;
5931;SDS011;2991;49.368;8.528;2022-08-21T09:45:29;4.18;;;2.70;;
5931;SDS011;2991;49.368;8.528;2022-08-21T09:47:56;2.75;;;2.22;;
5931;SDS011;2991;49.368;8.528;2022-08-21T09:50:32;2.85;;;2.53;;
5931;SDS011;2991;49.368;8.528;2022-08-21T09:52:58;2.30;;;2.10;;
5931;SDS011;2991;49.368;8.528;2022-08-21T09:55:33;2.85;;;2.40;;
5931;SDS011;2991;49.368;8.528;2022-08-21T09:58:32;2.40;;;2.20;;
5931;SDS011;2991;49.368;8.528;2022-08-21T10:01:02;2.63;;;2.47;;
5931;SDS011;2991;49.368;8.528;2022-08-21T10:03:29;3.35;;;3.05;;
5931;SDS011;2991;49.368;8.528;2022-08-21T10:05:57;2.23;;;2.10;;
5931;SDS011;2991;49.368;8.528;2022-08-21T10:08:26;2.63;;;2.42;;
5931;SDS011;2991;49.368;8.528;2022-08-21T10:11:12;4.10;;;2.83;;
5931;SDS011;2991;49.368;8.528;2022-08-21T10:16:28;2.80;;;2.60;;
5931;SDS011;2991;49.368;8.528;2022-08-21T10:19:05;2.90;;;2.33;;
5931;SDS011;2991;49.368;8.528;2022-08-21T10:24:45;1.90;;;1.70;;
5931;SDS011;2991;49.368;8.528;2022-08-21T10:36:01;2.70;;;2.50;;
5931;SDS011;2991;49.368;8.528;2022-08-21T10:49:40;1.88;;;1.77;;
5931;SDS011;2991;49.368;8.528;2022-08-21T10:52:35;2.60;;;2.40;;
5931;SDS011;2991;49.368;8.528;2022-08-21T10:55:17;2.20;;;2.00;;
5931;SDS011;2991;49.368;8.528;2022-08-21T10:57:50;4.15;;;2.17;;
5931;SDS011;2991;49.368;8.528;2022-08-21T11:03:22;2.92;;;2.40;;
5931;SDS011;2991;49.368;8.528;2022-08-21T11:08:35;2.35;;;2.15;;
5931;SDS011;2991;49.368;8.528;2022-08-21T11:11:15;2.75;;;2.25;;
5931;SDS011;2991;49.368;8.528;2022-08-21T11:21:54;2.90;;;2.47;;
5931;SDS011;2991;49.368;8.528;2022-08-21T11:24:31;2.28;;;2.08;;
5931;SDS011;2991;49.368;8.528;2022-08-21T11:27:12;2.45;;;2.13;;
5931;SDS011;2991;49.368;8.528;2022-08-21T11:29:49;3.80;;;2.45;;
5931;SDS011;2991;49.368;8.528;2022-08-21T11:35:03;4.03;;;2.40;;
5931;SDS011;2991;49.368;8.528;2022-08-21T11:37:46;2.50;;;2.30;;
5931;SDS011;2991;49.368;8.528;2022-08-21T11:46:11;3.05;;;2.47;;
5931;SDS011;2991;49.368;8.528;2022-08-21T11:49:15;2.03;;;1.92;;
5931;SDS011;2991;49.368;8.528;2022-08-21T11:56:55;2.28;;;2.17;;
5931;SDS011;2991;49.368;8.528;2022-08-21T11:59:32;2.72;;;2.40;;
5931;SDS011;2991;49.368;8.528;2022-08-21T12:02:20;4.47;;;2.47;;
5931;SDS011;2991;49.368;8.528;2022-08-21T12:04:51;2.83;;;2.35;;
5931;SDS011;2991;49.368;8.528;2022-08-21T12:07:40;4.00;;;2.15;;
5931;SDS011;2991;49.368;8.528;2022-08-21T12:10:12;4.30;;;2.75;;
5931;SDS011;2991;49.368;8.528;2022-08-21T12:12:41;3.92;;;2.67;;
5931;SDS011;2991;49.368;8.528;2022-08-21T12:18:00;2.80;;;2.60;;
5931;SDS011;2991;49.368;8.528;2022-08-21T12:20:33;3.25;;;2.60;;
5931;SDS011;2991;49.368;8.528;2022-08-21T12:23:31;2.78;;;2.30;;
5931;SDS011;2991;49.368;8.528;2022-08-21T12:29:11;3.80;;;2.45;;
5931;SDS011;2991;49.368;8.528;2022-08-21T12:31:48;1.90;;;1.80;;
5931;SDS011;2991;49.368;8.528;2022-08-21T12:34:20;2.97;;;2.33;;
5931;SDS011;2991;49.368;8.528;2022-08-21T12:36:53;2.10;;;2.00;;
5931;SDS011;2991;49.368;8.528;2022-08-21T12:39:24;2.38;;;2.28;;
5931;SDS011;2991;49.368;8.528;2022-08-21T12:44:21;2.40;;;2.30;;
5931;SDS011;2991;49.368;8.528;2022-08-21T12:47:06;2.47;;;2.28;;
5931;SDS011;2991;49.368;8.528;2022-08-21T12:49:45;2.55;;;2.20;;
5931;SDS011;2991;49.368;8.528;2022-08-21T12:52:36;2.30;;;2.10;;
5931;SDS011;2991;49.368;8.528;2022-08-21T12:55:26;2.30;;;2.20;;
5931;SDS011;2991;49.368;8.528;2022-08-21T12:57:54;2.53;;;2.28;;
5931;SDS011;2991;49.368;8.528;2022-08-21T13:00:22;2.55;;;2.35;;
5931;SDS011;2991;49.368;8.528;2022-08-21T13:02:51;2.40;;;2.30;;
5931;SDS011;2991;49.368;8.528;2022-08-21T13:05:31;4.35;;;2.47;;
5931;SDS011;2991;49.368;8.528;2022-08-21T13:08:05;2.42;;;2.20;;
5931;SDS011;2991;49.368;8.528;2022-08-21T13:10:40;2.47;;;2.38;;
5931;SDS011;2991;49.368;8.528;2022-08-21T13:13:19;2.38;;;2.17;;
5931;SDS011;2991;49.368;8.528;2022-08-21T13:15:48;3.58;;;2.40;;
5931;SDS011;2991;49.368;8.528;2022-08-21T13:18:25;11.05;;;3.10;;
5931;SDS011;2991;49.368;8.528;2022-08-21T13:21:02;19.45;;;4.15;;
5931;SDS011;2991;49.368;8.528;2022-08-21T13:23:33;10.18;;;2.97;;
5931;SDS011;2991;49.368;8.528;2022-08-21T13:26:00;11.65;;;3.72;;
5931;SDS011;2991;49.368;8.528;2022-08-21T13:28:33;2.88;;;2.63;;
5931;SDS011;2991;49.368;8.528;2022-08-21T13:31:05;8.20;;;3.85;;
5931;SDS011;2991;49.368;8.528;2022-08-21T13:33:35;7.20;;;3.38;;
5931;SDS011;2991;49.368;8.528;2022-08-21T13:38:56;8.32;;;3.42;;
5931;SDS011;2991;49.368;8.528;2022-08-21T13:41:29;6.15;;;3.63;;
5931;SDS011;2991;49.368;8.528;2022-08-21T13:44:03;13.25;;;3.30;;
5931;SDS011;2991;49.368;8.528;2022-08-21T13:46:33;4.13;;;3.10;;
5931;SDS011;2991;49.368;8.528;2022-08-21T13:49:00;4.80;;;3.20;;
5931;SDS011;2991;49.368;8.528;2022-08-21T13:51:29;5.57;;;3.38;;
5931;SDS011;2991;49.368;8.528;2022-08-21T13:53:56;7.57;;;3.33;;
5931;SDS011;2991;49.368;8.528;2022-08-21T13:59:23;4.97;;;3.17;;
5931;SDS011;2991;49.368;8.528;2022-08-21T14:01:55;5.97;;;3.15;;
5931;SDS011;2991;49.368;8.528;2022-08-21T14:07:33;5.90;;;3.13;;
5931;SDS011;2991;49.368;8.528;2022-08-21T14:10:03;4.53;;;3.08;;
5931;SDS011;2991;49.368;8.528;2022-08-21T14:12:32;5.22;;;3.20;;
5931;SDS011;2991;49.368;8.528;2022-08-21T14:15:05;8.20;;;3.65;;
5931;SDS011;2991;49.368;8.528;2022-08-21T14:17:33;4.18;;;3.20;;
5931;SDS011;2991;49.368;8.528;2022-08-21T14:20:02;6.80;;;3.20;;
5931;SDS011;2991;49.368;8.528;2022-08-21T14:22:41;8.40;;;3.22;;
5931;SDS011;2991;49.368;8.528;2022-08-21T14:27:43;5.55;;;3.00;;
5931;SDS011;2991;49.368;8.528;2022-08-21T14:30:31;27.73;;;3.47;;
5931;SDS011;2991;49.368;8.528;2022-08-21T14:36:32;5.18;;;2.70;;
5931;SDS011;2991;49.368;8.528;2022-08-21T14:39:55;9.85;;;3.38;;
5931;SDS011;2991;49.368;8.528;2022-08-21T14:43:05;5.88;;;3.05;;
5931;SDS011;2991;49.368;8.528;2022-08-21T15:07:02;10.43;;;3.42;;
5931;SDS011;2991;49.368;8.528;2022-08-21T15:33:20;4.25;;;3.10;;
5931;SDS011;2991;49.368;8.528;2022-08-21T15:38:58;6.97;;;3.15;;
5931;SDS011;2991;49.368;8.528;2022-08-21T15:41:23;8.40;;;3.08;;
5931;SDS011;2991;49.368;8.528;2022-08-21T15:43:50;6.68;;;3.70;;
5931;SDS011;2991;49.368;8.528;2022-08-21T15:46:18;8.93;;;3.10;;
5931;SDS011;2991;49.368;8.528;2022-08-21T15:48:45;3.67;;;3.00;;
5931;SDS011;2991;49.368;8.528;2022-08-21T15:51:11;3.70;;;3.15;;
5931;SDS011;2991;49.368;8.528;2022-08-21T15:53:37;5.43;;;3.70;;
5931;SDS011;2991;49.368;8.528;2022-08-21T15:56:05;5.32;;;3.20;;
5931;SDS011;2991;49.368;8.528;2022-08-21T15:58:35;16.88;;;3.88;;
5931;SDS011;2991;49.368;8.528;2022-08-21T16:01:01;10.48;;;3.22;;
5931;SDS011;2991;49.368;8.528;2022-08-21T16:03:26;6.05;;;3.45;;
5931;SDS011;2991;49.368;8.528;2022-08-21T16:05:53;7.55;;;3.17;;
5931;SDS011;2991;49.368;8.528;2022-08-21T16:08:20;5.47;;;3.28;;
5931;SDS011;2991;49.368;8.528;2022-08-21T16:10:46;5.75;;;3.35;;
5931;SDS011;2991;49.368;8.528;2022-08-21T16:13:20;5.32;;;3.35;;
5931;SDS011;2991;49.368;8.528;2022-08-21T16:15:52;5.53;;;3.30;;
5931;SDS011;2991;49.368;8.528;2022-08-21T16:18:18;8.40;;;3.25;;
5931;SDS011;2991;49.368;8.528;2022-08-21T16:20:44;7.25;;;3.13;;
5931;SDS011;2991;49.368;8.528;2022-08-21T16:23:10;14.75;;;3.75;;
5931;SDS011;2991;49.368;8.528;2022-08-21T16:25:36;7.97;;;3.80;;
5931;SDS011;2991;49.368;8.528;2022-08-21T16:28:04;6.90;;;3.80;;
5931;SDS011;2991;49.368;8.528;2022-08-21T16:30:32;6.63;;;3.83;;
5931;SDS011;2991;49.368;8.528;2022-08-21T16:32:59;12.73;;;3.92;;
5931;SDS011;2991;49.368;8.528;2022-08-21T16:35:27;4.25;;;2.88;;
5931;SDS011;2991;49.368;8.528;2022-08-21T16:37:52;5.07;;;3.15;;
5931;SDS011;2991;49.368;8.528;2022-08-21T16:40:18;9.30;;;3.38;;
5931;SDS011;2991;49.368;8.528;2022-08-21T16:42:44;6.43;;;3.20;;
5931;SDS011;2991;49.368;8.528;2022-08-21T16:45:14;7.72;;;4.70;;
5931;SDS011;2991;49.368;8.528;2022-08-21T16:47:41;4.95;;;3.38;;
5931;SDS011;2991;49.368;8.528;2022-08-21T16:50:08;6.57;;;3.70;;
5931;SDS011;2991;49.368;8.528;2022-08-21T16:52:37;4.13;;;2.78;;
5931;SDS011;2991;49.368;8.528;2022-08-21T16:55:03;7.50;;;3.53;;
5931;SDS011;2991;49.368;8.528;2022-08-21T16:57:29;5.22;;;3.00;;
5931;SDS011;2991;49.368;8.528;2022-08-21T16:59:55;5.45;;;4.05;;
5931;SDS011;2991;49.368;8.528;2022-08-21T17:04:49;5.53;;;4.13;;
5931;SDS011;2991;49.368;8.528;2022-08-21T17:07:15;5.97;;;4.60;;
5931;SDS011;2991;49.368;8.528;2022-08-21T17:09:41;7.07;;;4.05;;
5931;SDS011;2991;49.368;8.528;2022-08-21T17:12:06;6.80;;;3.28;;
5931;SDS011;2991;49.368;8.528;2022-08-21T17:14:32;3.83;;;3.17;;
5931;SDS011;2991;49.368;8.528;2022-08-21T17:17:00;6.43;;;3.60;;
5931;SDS011;2991;49.368;8.528;2022-08-21T17:19:36;9.95;;;3.58;;
5931;SDS011;2991;49.368;8.528;2022-08-21T17:22:05;5.13;;;3.10;;
5931;SDS011;2991;49.368;8.528;2022-08-21T17:24:35;9.90;;;3.50;;
5931;SDS011;2991;49.368;8.528;2022-08-21T17:27:04;4.20;;;2.90;;
5931;SDS011;2991;49.368;8.528;2022-08-21T17:29:56;10.88;;;3.58;;
5931;SDS011;2991;49.368;8.528;2022-08-21T17:32:49;6.55;;;3.28;;
5931;SDS011;2991;49.368;8.528;2022-08-21T17:35:18;11.23;;;3.58;;
5931;SDS011;2991;49.368;8.528;2022-08-21T17:37:53;9.30;;;4.28;;
5931;SDS011;2991;49.368;8.528;2022-08-21T17:40:30;7.38;;;3.53;;
5931;SDS011;2991;49.368;8.528;2022-08-21T17:42:56;10.23;;;3.17;;
5931;SDS011;2991;49.368;8.528;2022-08-21T17:45:22;6.90;;;3.42;;
5931;SDS011;2991;49.368;8.528;2022-08-21T17:47:48;8.77;;;4.40;;
5931;SDS011;2991;49.368;8.528;2022-08-21T17:50:14;4.03;;;3.60;;
5931;SDS011;2991;49.368;8.528;2022-08-21T17:52:40;6.93;;;4.13;;